sensor_id;sensor_type;location;lat;lon;timestamp;pressure;altitude;pressure_sealevel;temperature;humidity
64192;BME280;50497;50.720;-2.084;2023-07-20T00:01:53;102131.13;;;13.79;100.00
64192;BME280;50497;50.720;-2.084;2023-07-20T00:04:19;102119.88;;;13.70;100.00
64192;BME280;50497;50.720;-2.084;2023-07-20T00:06:44;102118.41;;;13.61;100.00
64192;BME280;50497;50.720;-2.084;2023-07-20T00:09:10;102122.25;;;13.54;100.00
64192;BME280;50497;50.720;-2.084;2023-07-20T00:11:36;102115.44;;;13.45;100.00
64192;BME280;50497;50.720;-2.084;2023-07-20T00:14:05;102119.16;;;13.41;100.00
64192;BME280;50497;50.720;-2.084;2023-07-20T00:16:31;102122.06;;;13.35;100.00
64192;BME280;50497;50.720;-2.084;2023-07-20T00:18:57;102108.78;;;13.30;100.00
64192;BME280;50497;50.720;-2.084;2023-07-20T00:21:22;102115.94;;;13.29;100.00
64192;BME280;50497;50.720;-2.084;2023-07-20T00:23:47;102108.19;;;13.22;100.00
64192;BME280;50497;50.720;-2.084;2023-07-20T00:26:13;102106.53;;;13.18;100.00
64192;BME280;50497;50.720;-2.084;2023-07-20T00:28:38;102096.13;;;13.08;100.00
64192;BME280;50497;50.720;-2.084;2023-07-20T00:31:04;102100.50;;;13.11;100.00
64192;BME280;50497;50.720;-2.084;2023-07-20T00:33:29;102094.63;;;13.00;100.00
64192;BME280;50497;50.720;-2.084;2023-07-20T00:35:55;102099.91;;;13.03;100.00
64192;BME280;50497;50.720;-2.084;2023-07-20T00:38:20;102101.06;;;12.96;100.00
64192;BME280;50497;50.720;-2.084;2023-07-20T00:40:46;102080.88;;;12.84;100.00
64192;BME280;50497;50.720;-2.084;2023-07-20T00:43:11;102082.91;;;12.77;100.00
64192;BME280;50497;50.720;-2.084;2023-07-20T00:45:38;102088.28;;;12.77;100.00
64192;BME280;50497;50.720;-2.084;2023-07-20T00:48:04;102083.06;;;12.72;100.00
64192;BME280;50497;50.720;-2.084;2023-07-20T00:50:30;102088.53;;;12.69;100.00
64192;BME280;50497;50.720;-2.084;2023-07-20T00:52:56;102086.19;;;12.60;100.00
64192;BME280;50497;50.720;-2.084;2023-07-20T00:55:23;102070.38;;;12.51;100.00
64192;BME280;50497;50.720;-2.084;2023-07-20T00:57:49;102078.38;;;12.52;100.00
64192;BME280;50497;50.720;-2.084;2023-07-20T01:00:15;102048.38;;;12.39;100.00
64192;BME280;50497;50.720;-2.084;2023-07-20T01:02:40;102081.94;;;12.53;100.00
64192;BME280;50497;50.720;-2.084;2023-07-20T01:05:06;102072.09;;;12.53;100.00
64192;BME280;50497;50.720;-2.084;2023-07-20T01:07:36;102056.25;;;12.46;100.00
64192;BME280;50497;50.720;-2.084;2023-07-20T01:10:30;102062.38;;;12.49;100.00
64192;BME280;50497;50.720;-2.084;2023-07-20T01:12:57;102074.84;;;12.52;100.00
64192;BME280;50497;50.720;-2.084;2023-07-20T01:15:22;102052.56;;;12.48;100.00
64192;BME280;50497;50.720;-2.084;2023-07-20T01:17:48;102064.97;;;12.52;100.00
64192;BME280;50497;50.720;-2.084;2023-07-20T01:20:15;102076.66;;;12.50;100.00
64192;BME280;50497;50.720;-2.084;2023-07-20T01:23:13;102063.56;;;12.41;100.00
64192;BME280;50497;50.720;-2.084;2023-07-20T01:33:41;102070.69;;;12.42;100.00
64192;BME280;50497;50.720;-2.084;2023-07-20T01:36:08;102073.25;;;12.45;100.00
64192;BME280;50497;50.720;-2.084;2023-07-20T01:38:34;102077.72;;;12.46;100.00
64192;BME280;50497;50.720;-2.084;2023-07-20T01:41:01;102075.03;;;12.46;100.00
64192;BME280;50497;50.720;-2.084;2023-07-20T01:43:27;102080.25;;;12.50;100.00
64192;BME280;50497;50.720;-2.084;2023-07-20T01:45:52;102080.34;;;12.47;100.00
64192;BME280;50497;50.720;-2.084;2023-07-20T01:48:17;102041.78;;;12.23;100.00
64192;BME280;50497;50.720;-2.084;2023-07-20T01:50:43;102081.38;;;12.43;100.00
64192;BME280;50497;50.720;-2.084;2023-07-20T01:53:08;102079.00;;;12.34;100.00
64192;BME280;50497;50.720;-2.084;2023-07-20T01:55:34;102071.78;;;12.36;100.00
64192;BME280;50497;50.720;-2.084;2023-07-20T01:57:59;102077.19;;;12.34;100.00
64192;BME280;50497;50.720;-2.084;2023-07-20T02:00:26;102079.88;;;12.34;100.00
64192;BME280;50497;50.720;-2.084;2023-07-20T02:02:51;102086.38;;;12.27;100.00
64192;BME280;50497;50.720;-2.084;2023-07-20T02:05:17;102086.63;;;12.19;100.00
64192;BME280;50497;50.720;-2.084;2023-07-20T02:07:43;102084.25;;;12.10;100.00
64192;BME280;50497;50.720;-2.084;2023-07-20T02:10:08;102069.63;;;11.92;100.00
64192;BME280;50497;50.720;-2.084;2023-07-20T02:12:34;102084.31;;;11.79;100.00
64192;BME280;50497;50.720;-2.084;2023-07-20T02:15:00;102095.19;;;11.74;100.00
64192;BME280;50497;50.720;-2.084;2023-07-20T02:17:26;102095.31;;;11.70;100.00
64192;BME280;50497;50.720;-2.084;2023-07-20T02:19:55;102093.66;;;11.65;100.00
64192;BME280;50497;50.720;-2.084;2023-07-20T02:22:21;102107.06;;;11.65;100.00
64192;BME280;50497;50.720;-2.084;2023-07-20T02:24:47;102102.00;;;11.55;100.00
64192;BME280;50497;50.720;-2.084;2023-07-20T02:27:12;102114.59;;;11.53;100.00
64192;BME280;50497;50.720;-2.084;2023-07-20T02:29:38;102127.25;;;11.48;100.00
64192;BME280;50497;50.720;-2.084;2023-07-20T02:32:03;102123.03;;;11.39;100.00
64192;BME280;50497;50.720;-2.084;2023-07-20T02:34:29;102118.72;;;11.33;100.00
64192;BME280;50497;50.720;-2.084;2023-07-20T02:36:54;102136.47;;;11.37;100.00
64192;BME280;50497;50.720;-2.084;2023-07-20T02:39:27;102136.72;;;11.28;100.00
64192;BME280;50497;50.720;-2.084;2023-07-20T02:41:52;102144.72;;;11.30;100.00
64192;BME280;50497;50.720;-2.084;2023-07-20T02:44:17;102150.09;;;11.30;100.00
64192;BME280;50497;50.720;-2.084;2023-07-20T02:46:43;102133.38;;;11.20;100.00
64192;BME280;50497;50.720;-2.084;2023-07-20T02:49:08;102153.72;;;11.27;100.00
64192;BME280;50497;50.720;-2.084;2023-07-20T02:51:34;102152.91;;;11.23;100.00
64192;BME280;50497;50.720;-2.084;2023-07-20T02:53:59;102167.97;;;11.29;100.00
64192;BME280;50497;50.720;-2.084;2023-07-20T02:56:25;102147.69;;;11.19;100.00
64192;BME280;50497;50.720;-2.084;2023-07-20T02:58:51;102168.84;;;11.30;100.00
64192;BME280;50497;50.720;-2.084;2023-07-20T03:01:17;102172.38;;;11.30;100.00
64192;BME280;50497;50.720;-2.084;2023-07-20T03:03:42;102175.19;;;11.25;100.00
64192;BME280;50497;50.720;-2.084;2023-07-20T03:06:14;102173.59;;;11.18;100.00
64192;BME280;50497;50.720;-2.084;2023-07-20T03:08:41;102179.66;;;11.25;100.00
64192;BME280;50497;50.720;-2.084;2023-07-20T03:11:07;102189.69;;;11.18;100.00
64192;BME280;50497;50.720;-2.084;2023-07-20T03:13:32;102191.72;;;11.08;100.00
64192;BME280;50497;50.720;-2.084;2023-07-20T03:15:58;102194.66;;;10.99;100.00
64192;BME280;50497;50.720;-2.084;2023-07-20T03:18:23;102206.34;;;10.95;100.00
64192;BME280;50497;50.720;-2.084;2023-07-20T03:20:49;102205.69;;;10.85;100.00
64192;BME280;50497;50.720;-2.084;2023-07-20T03:23:14;102218.94;;;10.91;100.00
64192;BME280;50497;50.720;-2.084;2023-07-20T03:25:40;102222.63;;;10.87;100.00
64192;BME280;50497;50.720;-2.084;2023-07-20T03:28:06;102238.56;;;10.92;100.00
64192;BME280;50497;50.720;-2.084;2023-07-20T03:30:31;102252.97;;;10.86;100.00
64192;BME280;50497;50.720;-2.084;2023-07-20T03:32:57;102242.50;;;10.77;100.00
64192;BME280;50497;50.720;-2.084;2023-07-20T03:35:22;102255.84;;;10.79;100.00
64192;BME280;50497;50.720;-2.084;2023-07-20T03:37:48;102244.41;;;10.72;100.00
64192;BME280;50497;50.720;-2.084;2023-07-20T03:40:13;102260.31;;;10.78;100.00
64192;BME280;50497;50.720;-2.084;2023-07-20T03:42:40;102257.81;;;10.70;100.00
64192;BME280;50497;50.720;-2.084;2023-07-20T03:45:06;102265.91;;;10.67;100.00
64192;BME280;50497;50.720;-2.084;2023-07-20T03:47:31;102295.13;;;10.78;100.00
64192;BME280;50497;50.720;-2.084;2023-07-20T03:49:57;102299.69;;;10.75;100.00
64192;BME280;50497;50.720;-2.084;2023-07-20T03:52:22;102294.63;;;10.61;100.00
64192;BME280;50497;50.720;-2.084;2023-07-20T03:54:49;102319.34;;;10.72;100.00
64192;BME280;50497;50.720;-2.084;2023-07-20T03:57:16;102324.94;;;10.63;100.00
64192;BME280;50497;50.720;-2.084;2023-07-20T03:59:45;102335.56;;;10.66;100.00
64192;BME280;50497;50.720;-2.084;2023-07-20T04:02:11;102317.06;;;10.55;100.00
64192;BME280;50497;50.720;-2.084;2023-07-20T04:04:36;102326.66;;;10.64;100.00
64192;BME280;50497;50.720;-2.084;2023-07-20T04:07:02;102333.72;;;10.68;100.00
64192;BME280;50497;50.720;-2.084;2023-07-20T04:09:27;102337.28;;;10.68;100.00
64192;BME280;50497;50.720;-2.084;2023-07-20T04:11:53;102338.28;;;10.64;100.00
64192;BME280;50497;50.720;-2.084;2023-07-20T04:14:18;102358.66;;;10.70;100.00
64192;BME280;50497;50.720;-2.084;2023-07-20T04:16:46;102364.03;;;10.70;100.00
64192;BME280;50497;50.720;-2.084;2023-07-20T04:19:11;102350.81;;;10.61;100.00
64192;BME280;50497;50.720;-2.084;2023-07-20T04:21:40;102352.72;;;10.56;100.00
64192;BME280;50497;50.720;-2.084;2023-07-20T04:24:08;102350.13;;;10.52;100.00
64192;BME280;50497;50.720;-2.084;2023-07-20T04:26:34;102375.00;;;10.58;100.00
64192;BME280;50497;50.720;-2.084;2023-07-20T04:28:59;102360.75;;;10.56;100.00
64192;BME280;50497;50.720;-2.084;2023-07-20T04:31:24;102354.84;;;10.40;100.00
64192;BME280;50497;50.720;-2.084;2023-07-20T04:33:50;102358.28;;;10.46;100.00
64192;BME280;50497;50.720;-2.084;2023-07-20T04:36:15;102361.91;;;10.44;100.00
64192;BME280;50497;50.720;-2.084;2023-07-20T04:38:47;102356.63;;;10.39;100.00
64192;BME280;50497;50.720;-2.084;2023-07-20T04:41:12;102349.56;;;10.37;100.00
64192;BME280;50497;50.720;-2.084;2023-07-20T04:43:41;102355.72;;;10.40;100.00
64192;BME280;50497;50.720;-2.084;2023-07-20T04:46:08;102345.91;;;10.41;100.00
64192;BME280;50497;50.720;-2.084;2023-07-20T04:48:34;102341.50;;;10.38;100.00
64192;BME280;50497;50.720;-2.084;2023-07-20T04:50:59;102349.34;;;10.46;100.00
64192;BME280;50497;50.720;-2.084;2023-07-20T04:53:24;102344.97;;;10.43;100.00
64192;BME280;50497;50.720;-2.084;2023-07-20T04:55:50;102330.69;;;10.44;100.00
64192;BME280;50497;50.720;-2.084;2023-07-20T04:58:18;102298.00;;;10.27;100.00
64192;BME280;50497;50.720;-2.084;2023-07-20T05:00:43;102320.75;;;10.49;100.00
64192;BME280;50497;50.720;-2.084;2023-07-20T05:03:09;102314.44;;;10.52;100.00
64192;BME280;50497;50.720;-2.084;2023-07-20T05:05:34;102308.13;;;10.56;100.00
64192;BME280;50497;50.720;-2.084;2023-07-20T05:07:59;102313.31;;;10.62;100.00
64192;BME280;50497;50.720;-2.084;2023-07-20T05:10:25;102322.00;;;10.73;100.00
64192;BME280;50497;50.720;-2.084;2023-07-20T05:12:50;102312.41;;;10.63;100.00
64192;BME280;50497;50.720;-2.084;2023-07-20T05:15:16;102335.28;;;10.78;100.00
64192;BME280;50497;50.720;-2.084;2023-07-20T05:17:41;102347.84;;;10.76;100.00
64192;BME280;50497;50.720;-2.084;2023-07-20T05:20:07;102350.56;;;10.73;100.00
64192;BME280;50497;50.720;-2.084;2023-07-20T05:22:35;102362.19;;;10.72;100.00
64192;BME280;50497;50.720;-2.084;2023-07-20T05:25:00;102363.94;;;10.75;100.00
64192;BME280;50497;50.720;-2.084;2023-07-20T05:27:25;102355.94;;;10.73;100.00
64192;BME280;50497;50.720;-2.084;2023-07-20T05:29:51;102351.50;;;10.70;100.00
64192;BME280;50497;50.720;-2.084;2023-07-20T05:32:16;102377.88;;;10.89;100.00
64192;BME280;50497;50.720;-2.084;2023-07-20T05:34:42;102367.22;;;10.87;100.00
64192;BME280;50497;50.720;-2.084;2023-07-20T05:37:07;102383.78;;;11.03;100.00
64192;BME280;50497;50.720;-2.084;2023-07-20T05:39:33;102372.94;;;11.09;100.00
64192;BME280;50497;50.720;-2.084;2023-07-20T05:41:58;102376.47;;;11.12;100.00
64192;BME280;50497;50.720;-2.084;2023-07-20T05:44:24;102380.84;;;11.16;100.00
64192;BME280;50497;50.720;-2.084;2023-07-20T05:46:49;102417.84;;;11.37;100.00
64192;BME280;50497;50.720;-2.084;2023-07-20T05:49:14;102423.63;;;11.56;100.00
64192;BME280;50497;50.720;-2.084;2023-07-20T05:51:40;102437.88;;;11.58;100.00
64192;BME280;50497;50.720;-2.084;2023-07-20T05:54:05;102452.81;;;11.69;100.00
64192;BME280;50497;50.720;-2.084;2023-07-20T05:56:31;102468.63;;;11.81;100.00
64192;BME280;50497;50.720;-2.084;2023-07-20T05:58:57;102470.38;;;11.82;100.00
64192;BME280;50497;50.720;-2.084;2023-07-20T06:01:22;102493.41;;;11.92;100.00
64192;BME280;50497;50.720;-2.084;2023-07-20T06:03:48;102505.81;;;11.96;100.00
64192;BME280;50497;50.720;-2.084;2023-07-20T06:06:13;102527.00;;;12.07;100.00
64192;BME280;50497;50.720;-2.084;2023-07-20T06:08:40;102516.22;;;12.10;100.00
64192;BME280;50497;50.720;-2.084;2023-07-20T06:11:05;102517.69;;;12.22;100.00
64192;BME280;50497;50.720;-2.084;2023-07-20T06:13:30;102526.25;;;12.36;100.00
64192;BME280;50497;50.720;-2.084;2023-07-20T06:15:56;102523.50;;;12.72;100.00
64192;BME280;50497;50.720;-2.084;2023-07-20T06:18:24;102525.47;;;13.28;100.00
64192;BME280;50497;50.720;-2.084;2023-07-20T06:20:51;102506.22;;;13.99;100.00
64192;BME280;50497;50.720;-2.084;2023-07-20T06:23:18;102449.94;;;14.43;100.00
64192;BME280;50497;50.720;-2.084;2023-07-20T06:25:44;102378.59;;;15.24;100.00
64192;BME280;50497;50.720;-2.084;2023-07-20T06:28:09;102281.97;;;15.56;100.00
64192;BME280;50497;50.720;-2.084;2023-07-20T06:30:34;102225.56;;;16.10;100.00
64192;BME280;50497;50.720;-2.084;2023-07-20T06:33:00;102138.66;;;16.57;100.00
64192;BME280;50497;50.720;-2.084;2023-07-20T06:35:25;102086.31;;;16.95;100.00
64192;BME280;50497;50.720;-2.084;2023-07-20T06:37:51;102059.16;;;17.14;100.00
64192;BME280;50497;50.720;-2.084;2023-07-20T06:40:17;102044.06;;;17.43;100.00
64192;BME280;50497;50.720;-2.084;2023-07-20T06:42:43;102060.06;;;17.80;100.00
64192;BME280;50497;50.720;-2.084;2023-07-20T06:45:08;102069.63;;;17.69;100.00
64192;BME280;50497;50.720;-2.084;2023-07-20T06:47:34;102071.88;;;18.41;100.00
64192;BME280;50497;50.720;-2.084;2023-07-20T06:49:59;102110.56;;;17.97;100.00
64192;BME280;50497;50.720;-2.084;2023-07-20T06:52:27;102113.06;;;18.32;100.00
64192;BME280;50497;50.720;-2.084;2023-07-20T06:54:53;102144.78;;;18.92;100.00
64192;BME280;50497;50.720;-2.084;2023-07-20T06:57:18;102195.94;;;19.28;100.00
64192;BME280;50497;50.720;-2.084;2023-07-20T06:59:43;102277.66;;;17.60;100.00
64192;BME280;50497;50.720;-2.084;2023-07-20T07:02:09;102255.22;;;18.58;100.00
64192;BME280;50497;50.720;-2.084;2023-07-20T07:04:34;102294.91;;;19.67;100.00
64192;BME280;50497;50.720;-2.084;2023-07-20T07:06:59;102356.50;;;20.40;100.00
64192;BME280;50497;50.720;-2.084;2023-07-20T07:09:25;102371.19;;;19.00;100.00
64192;BME280;50497;50.720;-2.084;2023-07-20T07:11:50;102369.28;;;19.65;100.00
64192;BME280;50497;50.720;-2.084;2023-07-20T07:14:15;102381.28;;;19.61;100.00
64192;BME280;50497;50.720;-2.084;2023-07-20T07:16:41;102392.25;;;19.59;100.00
64192;BME280;50497;50.720;-2.084;2023-07-20T07:19:06;102427.38;;;20.23;100.00
64192;BME280;50497;50.720;-2.084;2023-07-20T07:21:32;102444.28;;;20.57;100.00
64192;BME280;50497;50.720;-2.084;2023-07-20T07:23:57;102357.34;;;21.26;100.00
64192;BME280;50497;50.720;-2.084;2023-07-20T07:26:25;102274.69;;;20.86;100.00
64192;BME280;50497;50.720;-2.084;2023-07-20T07:28:50;102215.81;;;21.26;100.00
64192;BME280;50497;50.720;-2.084;2023-07-20T07:31:15;102140.81;;;20.81;100.00
64192;BME280;50497;50.720;-2.084;2023-07-20T07:33:41;101952.25;;;21.56;100.00
64192;BME280;50497;50.720;-2.084;2023-07-20T07:36:06;101762.25;;;22.18;100.00
64192;BME280;50497;50.720;-2.084;2023-07-20T07:38:32;101642.22;;;21.97;100.00
64192;BME280;50497;50.720;-2.084;2023-07-20T07:40:58;101564.56;;;21.91;100.00
64192;BME280;50497;50.720;-2.084;2023-07-20T07:43:23;101522.22;;;20.85;100.00
64192;BME280;50497;50.720;-2.084;2023-07-20T07:45:48;101406.94;;;22.40;100.00
64192;BME280;50497;50.720;-2.084;2023-07-20T07:48:14;101394.09;;;22.10;100.00
64192;BME280;50497;50.720;-2.084;2023-07-20T07:50:39;101404.66;;;22.97;100.00
64192;BME280;50497;50.720;-2.084;2023-07-20T07:53:05;101392.09;;;22.54;100.00
64192;BME280;50497;50.720;-2.084;2023-07-20T07:55:31;101372.44;;;23.22;100.00
64192;BME280;50497;50.720;-2.084;2023-07-20T07:57:56;101335.91;;;22.73;100.00
64192;BME280;50497;50.720;-2.084;2023-07-20T08:00:22;101249.34;;;22.34;100.00
64192;BME280;50497;50.720;-2.084;2023-07-20T08:02:49;100865.31;;;22.78;100.00
64192;BME280;50497;50.720;-2.084;2023-07-20T08:05:15;100809.72;;;23.17;100.00
64192;BME280;50497;50.720;-2.084;2023-07-20T08:07:40;100818.16;;;24.13;100.00
64192;BME280;50497;50.720;-2.084;2023-07-20T08:10:06;100743.28;;;23.62;100.00
64192;BME280;50497;50.720;-2.084;2023-07-20T08:12:32;101052.72;;;23.72;100.00
64192;BME280;50497;50.720;-2.084;2023-07-20T08:14:57;101191.19;;;24.47;100.00
64192;BME280;50497;50.720;-2.084;2023-07-20T08:17:23;101159.06;;;24.31;100.00
64192;BME280;50497;50.720;-2.084;2023-07-20T08:19:48;101171.16;;;24.28;100.00
64192;BME280;50497;50.720;-2.084;2023-07-20T08:22:13;101195.31;;;24.33;100.00
64192;BME280;50497;50.720;-2.084;2023-07-20T08:24:40;101238.44;;;24.77;100.00
64192;BME280;50497;50.720;-2.084;2023-07-20T08:27:05;101400.50;;;25.36;100.00
64192;BME280;50497;50.720;-2.084;2023-07-20T08:29:31;101391.84;;;25.03;100.00
64192;BME280;50497;50.720;-2.084;2023-07-20T08:31:56;101330.63;;;24.76;100.00
64192;BME280;50497;50.720;-2.084;2023-07-20T08:34:21;101290.31;;;24.68;100.00
64192;BME280;50497;50.720;-2.084;2023-07-20T08:36:47;101338.59;;;25.43;100.00
64192;BME280;50497;50.720;-2.084;2023-07-20T08:39:12;101438.22;;;25.88;100.00
64192;BME280;50497;50.720;-2.084;2023-07-20T08:41:38;101491.28;;;25.96;100.00
64192;BME280;50497;50.720;-2.084;2023-07-20T08:44:05;101534.31;;;26.14;100.00
64192;BME280;50497;50.720;-2.084;2023-07-20T08:46:31;101404.91;;;25.19;100.00
64192;BME280;50497;50.720;-2.084;2023-07-20T08:48:57;101479.47;;;25.86;100.00
64192;BME280;50497;50.720;-2.084;2023-07-20T08:51:23;101538.28;;;25.46;100.00
64192;BME280;50497;50.720;-2.084;2023-07-20T08:53:51;101500.63;;;25.48;100.00
64192;BME280;50497;50.720;-2.084;2023-07-20T08:56:17;101499.78;;;25.75;100.00
64192;BME280;50497;50.720;-2.084;2023-07-20T08:58:45;101510.63;;;25.95;100.00
64192;BME280;50497;50.720;-2.084;2023-07-20T09:01:11;101551.81;;;27.37;97.15
64192;BME280;50497;50.720;-2.084;2023-07-20T09:03:37;101568.00;;;27.49;92.60
64192;BME280;50497;50.720;-2.084;2023-07-20T09:06:05;101559.09;;;25.94;99.76
64192;BME280;50497;50.720;-2.084;2023-07-20T09:08:31;101574.50;;;26.95;94.95
64192;BME280;50497;50.720;-2.084;2023-07-20T09:10:57;101576.00;;;26.89;91.34
64192;BME280;50497;50.720;-2.084;2023-07-20T09:13:22;101569.84;;;26.69;95.01
64192;BME280;50497;50.720;-2.084;2023-07-20T09:15:53;101564.38;;;26.96;97.07
64192;BME280;50497;50.720;-2.084;2023-07-20T09:18:27;101578.41;;;27.63;91.69
64192;BME280;50497;50.720;-2.084;2023-07-20T09:20:57;101590.03;;;27.57;85.97
64192;BME280;50497;50.720;-2.084;2023-07-20T09:23:37;101560.06;;;26.67;98.28
64192;BME280;50497;50.720;-2.084;2023-07-20T09:26:10;101582.50;;;25.98;93.26
64192;BME280;50497;50.720;-2.084;2023-07-20T09:29:04;101583.63;;;27.74;90.10
64192;BME280;50497;50.720;-2.084;2023-07-20T09:31:32;101606.28;;;28.02;74.48
64192;BME280;50497;50.720;-2.084;2023-07-20T09:33:57;101602.41;;;28.46;72.09
64192;BME280;50497;50.720;-2.084;2023-07-20T09:36:24;101602.41;;;28.38;75.54
64192;BME280;50497;50.720;-2.084;2023-07-20T09:38:51;101582.50;;;28.61;82.44
64192;BME280;50497;50.720;-2.084;2023-07-20T09:41:17;101596.28;;;28.61;71.65
64192;BME280;50497;50.720;-2.084;2023-07-20T09:43:46;101591.69;;;28.18;66.90
64192;BME280;50497;50.720;-2.084;2023-07-20T09:46:11;101592.13;;;27.10;66.29
64192;BME280;50497;50.720;-2.084;2023-07-20T09:48:37;101612.81;;;28.61;62.49
64192;BME280;50497;50.720;-2.084;2023-07-20T09:51:03;101614.50;;;29.36;44.11
64192;BME280;50497;50.720;-2.084;2023-07-20T09:53:29;101594.03;;;28.64;54.85
64192;BME280;50497;50.720;-2.084;2023-07-20T09:55:57;101608.41;;;28.42;49.06
64192;BME280;50497;50.720;-2.084;2023-07-20T09:58:25;101596.09;;;28.95;61.42
64192;BME280;50497;50.720;-2.084;2023-07-20T10:00:52;101597.66;;;29.22;50.84
64192;BME280;50497;50.720;-2.084;2023-07-20T10:03:28;101596.97;;;28.63;53.47
64192;BME280;50497;50.720;-2.084;2023-07-20T10:05:58;101589.56;;;28.71;74.15
64192;BME280;50497;50.720;-2.084;2023-07-20T10:08:26;101581.88;;;28.08;79.13
64192;BME280;50497;50.720;-2.084;2023-07-20T10:10:53;101585.31;;;28.10;63.96
64192;BME280;50497;50.720;-2.084;2023-07-20T10:13:26;101596.44;;;28.84;59.54
64192;BME280;50497;50.720;-2.084;2023-07-20T10:16:02;101577.31;;;29.23;53.96
64192;BME280;50497;50.720;-2.084;2023-07-20T10:18:31;101587.75;;;28.21;71.52
64192;BME280;50497;50.720;-2.084;2023-07-20T10:21:00;101581.63;;;26.80;72.66
64192;BME280;50497;50.720;-2.084;2023-07-20T10:23:29;101550.28;;;26.54;86.14
64192;BME280;50497;50.720;-2.084;2023-07-20T10:25:55;101579.59;;;25.62;82.28
64192;BME280;50497;50.720;-2.084;2023-07-20T10:28:22;101569.72;;;25.52;88.93
64192;BME280;50497;50.720;-2.084;2023-07-20T10:30:48;101538.03;;;25.95;96.24
64192;BME280;50497;50.720;-2.084;2023-07-20T10:33:14;101576.00;;;26.17;76.08
64192;BME280;50497;50.720;-2.084;2023-07-20T10:35:57;101573.97;;;28.13;77.20
64192;BME280;50497;50.720;-2.084;2023-07-20T10:38:42;101595.91;;;29.05;56.54
64192;BME280;50497;50.720;-2.084;2023-07-20T10:41:18;101572.50;;;29.25;57.01
64192;BME280;50497;50.720;-2.084;2023-07-20T10:43:45;101573.50;;;27.83;58.46
64192;BME280;50497;50.720;-2.084;2023-07-20T10:46:11;101588.34;;;26.85;71.56
64192;BME280;50497;50.720;-2.084;2023-07-20T10:49:04;101572.22;;;26.00;87.76
64192;BME280;50497;50.720;-2.084;2023-07-20T10:51:30;101562.91;;;26.11;90.49
64192;BME280;50497;50.720;-2.084;2023-07-20T10:54:03;101571.16;;;25.46;86.65
64192;BME280;50497;50.720;-2.084;2023-07-20T10:56:28;101516.97;;;25.40;99.47
64192;BME280;50497;50.720;-2.084;2023-07-20T10:58:58;101564.69;;;25.47;91.01
64192;BME280;50497;50.720;-2.084;2023-07-20T11:01:28;101561.69;;;25.21;90.96
64192;BME280;50497;50.720;-2.084;2023-07-20T11:03:57;101543.13;;;25.05;98.75
64192;BME280;50497;50.720;-2.084;2023-07-20T11:09:04;101550.94;;;25.00;92.67
64192;BME280;50497;50.720;-2.084;2023-07-20T11:11:31;101529.97;;;25.28;96.80
64192;BME280;50497;50.720;-2.084;2023-07-20T11:14:02;101561.63;;;26.96;79.06
64192;BME280;50497;50.720;-2.084;2023-07-20T11:16:38;101576.53;;;28.06;63.18
64192;BME280;50497;50.720;-2.084;2023-07-20T11:19:04;101594.31;;;28.45;53.92
64192;BME280;50497;50.720;-2.084;2023-07-20T11:21:38;101567.19;;;27.56;63.40
64192;BME280;50497;50.720;-2.084;2023-07-20T11:24:06;101568.50;;;26.91;60.16
64192;BME280;50497;50.720;-2.084;2023-07-20T11:29:12;101532.66;;;24.32;83.26
64192;BME280;50497;50.720;-2.084;2023-07-20T11:31:39;101548.22;;;24.41;85.13
64192;BME280;50497;50.720;-2.084;2023-07-20T11:34:05;101545.81;;;24.67;88.72
64192;BME280;50497;50.720;-2.084;2023-07-20T11:36:31;101545.91;;;24.17;96.25
64192;BME280;50497;50.720;-2.084;2023-07-20T11:38:58;101494.22;;;23.34;100.00
64192;BME280;50497;50.720;-2.084;2023-07-20T11:41:25;101416.84;;;23.84;100.00
64192;BME280;50497;50.720;-2.084;2023-07-20T11:43:51;101348.06;;;23.50;100.00
64192;BME280;50497;50.720;-2.084;2023-07-20T11:46:16;101291.59;;;23.89;100.00
64192;BME280;50497;50.720;-2.084;2023-07-20T11:48:42;101430.13;;;25.50;100.00
64192;BME280;50497;50.720;-2.084;2023-07-20T11:51:14;101463.94;;;24.94;100.00
64192;BME280;50497;50.720;-2.084;2023-07-20T11:53:40;101485.72;;;26.06;99.63
64192;BME280;50497;50.720;-2.084;2023-07-20T11:56:06;101476.19;;;26.10;100.00
64192;BME280;50497;50.720;-2.084;2023-07-20T11:58:31;101454.34;;;25.17;100.00
64192;BME280;50497;50.720;-2.084;2023-07-20T12:00:57;101448.22;;;24.19;100.00
64192;BME280;50497;50.720;-2.084;2023-07-20T12:03:22;101399.00;;;24.19;100.00
64192;BME280;50497;50.720;-2.084;2023-07-20T12:05:48;101376.25;;;23.70;100.00
64192;BME280;50497;50.720;-2.084;2023-07-20T12:08:15;101336.13;;;23.51;100.00
64192;BME280;50497;50.720;-2.084;2023-07-20T12:10:41;101244.84;;;23.14;100.00
64192;BME280;50497;50.720;-2.084;2023-07-20T12:13:10;101186.34;;;22.68;100.00
64192;BME280;50497;50.720;-2.084;2023-07-20T12:15:35;101103.78;;;22.76;100.00
64192;BME280;50497;50.720;-2.084;2023-07-20T12:18:02;101219.09;;;23.66;100.00
64192;BME280;50497;50.720;-2.084;2023-07-20T12:20:30;101207.25;;;24.69;100.00
64192;BME280;50497;50.720;-2.084;2023-07-20T12:23:01;101317.91;;;24.57;100.00
64192;BME280;50497;50.720;-2.084;2023-07-20T12:25:37;101313.41;;;24.94;100.00
64192;BME280;50497;50.720;-2.084;2023-07-20T12:28:06;101295.38;;;25.55;100.00
64192;BME280;50497;50.720;-2.084;2023-07-20T12:30:32;101398.53;;;25.18;100.00
64192;BME280;50497;50.720;-2.084;2023-07-20T12:32:57;101343.25;;;24.87;100.00
64192;BME280;50497;50.720;-2.084;2023-07-20T12:35:22;101341.59;;;24.19;100.00
64192;BME280;50497;50.720;-2.084;2023-07-20T12:37:48;101194.16;;;23.12;100.00
64192;BME280;50497;50.720;-2.084;2023-07-20T12:40:14;101087.69;;;22.92;100.00
64192;BME280;50497;50.720;-2.084;2023-07-20T12:42:39;101154.94;;;23.79;100.00
64192;BME280;50497;50.720;-2.084;2023-07-20T12:45:05;101186.28;;;23.75;100.00